createdAt,value
2022-12-11T00:03:24.180Z,172
2022-12-11T00:07:04.528Z,219
2022-12-11T00:10:49.265Z,192
2022-12-11T00:14:29.300Z,130
2022-12-11T00:18:18.247Z,143
2022-12-11T00:21:58.207Z,139
2022-12-11T00:25:38.409Z,138
2022-12-11T00:29:18.601Z,140
2022-12-11T00:33:00.606Z,138
2022-12-11T00:36:41.017Z,127
2022-12-11T00:40:21.487Z,126
2022-12-11T00:44:01.641Z,128
2022-12-11T00:47:42.224Z,128
2022-12-11T00:51:29.829Z,108
2022-12-11T00:55:10.025Z,108
2022-12-11T00:58:50.425Z,108
2022-12-11T01:03:17.809Z,107
2022-12-11T01:06:58.580Z,107
2022-12-11T01:10:42.252Z,119
2022-12-11T01:14:22.283Z,119
2022-12-11T01:18:03.492Z,119
2022-12-11T01:21:43.529Z,107
2022-12-11T01:25:23.992Z,108
2022-12-11T01:29:04.166Z,108
2022-12-11T01:32:44.816Z,107
2022-12-11T01:36:24.902Z,123
2022-12-11T01:40:04.734Z,124
2022-12-11T01:43:44.701Z,126
2022-12-11T01:47:29.620Z,126
2022-12-11T01:51:11.509Z,139
2022-12-11T01:54:51.483Z,140
2022-12-11T01:58:31.385Z,137
2022-12-11T02:03:18.765Z,136
2022-12-11T02:06:59.553Z,135
2022-12-11T02:10:40.630Z,188
2022-12-11T02:14:20.865Z,177
2022-12-11T02:18:01.909Z,119
2022-12-11T02:21:42.090Z,119
2022-12-11T02:25:22.680Z,118
2022-12-11T02:29:02.616Z,105
2022-12-11T02:32:42.958Z,106
2022-12-11T02:36:22.959Z,105
2022-12-11T02:40:02.731Z,119
2022-12-11T02:43:43.154Z,1869
2022-12-11T02:47:23.304Z,119
2022-12-11T02:51:03.643Z,117
2022-12-11T02:54:43.751Z,105
2022-12-11T02:58:23.838Z,120
2022-12-11T03:03:18.791Z,137
2022-12-11T03:06:59.250Z,137
2022-12-11T03:10:39.467Z,139
2022-12-11T03:14:24.916Z,137
2022-12-11T03:18:05.749Z,139
2022-12-11T03:21:45.654Z,125
2022-12-11T03:25:25.860Z,135
2022-12-11T03:29:13.339Z,148
2022-12-11T03:32:54.327Z,137
2022-12-11T03:36:51.084Z,136
2022-12-11T03:40:31.173Z,118
2022-12-11T03:44:11.071Z,120
2022-12-11T03:47:52.362Z,118
2022-12-11T03:51:32.259Z,118
2022-12-11T03:55:12.818Z,120
2022-12-11T03:58:53.317Z,121
2022-12-11T04:03:24.646Z,119
2022-12-11T04:07:05.682Z,119
2022-12-11T04:10:46.229Z,116
2022-12-11T04:14:26.335Z,117
2022-12-11T04:18:07.338Z,106
2022-12-11T04:21:51.096Z,107
2022-12-11T04:25:31.289Z,106
2022-12-11T04:29:11.556Z,125
2022-12-11T04:32:52.375Z,148
2022-12-11T04:36:32.337Z,149
2022-12-11T04:40:12.136Z,151
2022-12-11T04:43:52.162Z,159
2022-12-11T04:47:32.921Z,151
2022-12-11T04:51:13.139Z,147
2022-12-11T04:54:53.194Z,138
2022-12-11T04:58:33.579Z,195
2022-12-11T05:03:18.713Z,1083
2022-12-11T05:08:47.479Z,1085
2022-12-11T05:12:35.904Z,1056
2022-12-11T05:16:16.566Z,1034
2022-12-11T05:19:56.995Z,1046
2022-12-11T05:23:38.061Z,1060
2022-12-11T05:27:18.160Z,1061
2022-12-11T05:30:59.608Z,1022
2022-12-11T05:34:40.430Z,1063
2022-12-11T05:38:20.707Z,1049
2022-12-11T05:42:00.810Z,1034
2022-12-11T05:45:41.935Z,1026
2022-12-11T05:49:30.623Z,1072
2022-12-11T05:53:11.244Z,1099
2022-12-11T05:56:51.705Z,1074
2022-12-11T06:03:26.741Z,1033
2022-12-11T06:07:07.206Z,1034
2022-12-11T06:10:47.397Z,1031
2022-12-11T06:14:29.768Z,1042
2022-12-11T06:18:11.508Z,205
2022-12-11T06:21:57.677Z,205
2022-12-11T06:25:38.057Z,205
2022-12-11T06:29:24.047Z,204
2022-12-11T06:33:19.289Z,216
2022-12-11T06:37:00.297Z,212
2022-12-11T06:40:40.650Z,253
2022-12-11T06:44:20.788Z,211
2022-12-11T06:48:07.411Z,195
2022-12-11T06:51:47.595Z,194
2022-12-11T06:55:27.667Z,182
2022-12-11T06:59:13.233Z,180
2022-12-11T07:03:18.919Z,171
2022-12-11T07:07:00.091Z,184
2022-12-11T07:10:48.964Z,181
2022-12-11T07:14:29.112Z,211
2022-12-11T07:18:14.402Z,203
2022-12-11T07:21:54.970Z,258
2022-12-11T07:25:41.117Z,203
2022-12-11T07:29:21.483Z,198
2022-12-11T07:33:03.668Z,196
2022-12-11T07:36:49.464Z,197
2022-12-11T07:40:29.484Z,190
2022-12-11T07:44:09.634Z,190
2022-12-11T07:47:50.722Z,179
2022-12-11T07:51:37.814Z,169
2022-12-11T07:55:18.467Z,198
2022-12-11T07:59:05.709Z,204
2022-12-11T08:03:26.007Z,207
2022-12-11T08:07:06.401Z,169
2022-12-11T08:10:55.335Z,165
2022-12-11T08:14:35.703Z,170
2022-12-11T08:18:28.896Z,186
2022-12-11T08:22:09.340Z,169
2022-12-11T08:25:56.667Z,99
2022-12-11T08:29:37.311Z,99
2022-12-11T08:33:18.148Z,149
2022-12-11T08:36:58.644Z,116
2022-12-11T08:40:38.905Z,119
2022-12-11T08:44:27.175Z,119
2022-12-11T08:48:08.201Z,137
2022-12-11T08:51:48.251Z,117
2022-12-11T08:55:28.491Z,117
2022-12-11T08:59:08.670Z,117
2022-12-11T09:03:24.029Z,127
2022-12-11T09:07:04.696Z,99
2022-12-11T09:10:53.282Z,98
2022-12-11T09:14:39.265Z,108
2022-12-11T09:18:20.119Z,128
2022-12-11T09:22:05.431Z,99
2022-12-11T09:25:45.862Z,97
2022-12-11T09:29:34.488Z,100
2022-12-11T09:33:15.347Z,108
2022-12-11T09:36:56.116Z,99
2022-12-11T09:40:44.680Z,98
2022-12-11T09:44:24.938Z,100
2022-12-11T09:48:14.762Z,116
2022-12-11T09:51:55.153Z,138
2022-12-11T09:55:37.061Z,128
2022-12-11T09:59:17.462Z,118
2022-12-11T10:03:18.113Z,128
2022-12-11T10:07:04.843Z,117
2022-12-11T10:10:45.477Z,119
2022-12-11T10:14:34.005Z,117
2022-12-11T10:18:16.803Z,135
2022-12-11T10:21:56.896Z,118
2022-12-11T10:26:09.424Z,100
2022-12-11T10:29:49.782Z,110
2022-12-11T10:33:35.015Z,118
2022-12-11T10:37:15.686Z,99
2022-12-11T10:40:55.919Z,99
2022-12-11T10:44:42.880Z,100
2022-12-11T10:48:24.079Z,117
2022-12-11T10:52:04.139Z,99
2022-12-11T10:55:51.836Z,97
2022-12-11T10:59:35.460Z,96
2022-12-11T11:03:18.662Z,105
2022-12-11T11:06:59.472Z,162
2022-12-11T11:10:40.208Z,151
2022-12-11T11:14:22.934Z,116
2022-12-11T11:18:24.750Z,138
2022-12-11T11:22:05.309Z,118
2022-12-11T11:25:53.872Z,115
2022-12-11T11:30:23.618Z,117
2022-12-11T11:34:04.289Z,127
2022-12-11T11:37:48.560Z,120
2022-12-11T11:41:36.736Z,117
2022-12-11T11:45:17.323Z,168
2022-12-11T11:49:05.338Z,158
2022-12-11T11:52:45.604Z,96
2022-12-11T11:56:26.036Z,98
2022-12-11T12:03:23.180Z,105
2022-12-11T12:07:09.399Z,99
2022-12-11T12:10:50.893Z,98
2022-12-11T12:15:33.373Z,99
2022-12-11T12:19:58.386Z,116
2022-12-11T12:23:46.209Z,148
2022-12-11T12:28:02.645Z,135
2022-12-11T12:31:43.388Z,108
2022-12-11T12:35:24.077Z,128
2022-12-11T12:39:12.393Z,118
2022-12-11T12:43:01.341Z,116
2022-12-11T12:46:42.934Z,136
2022-12-11T12:50:29.346Z,136
2022-12-11T12:54:17.812Z,118
2022-12-11T12:57:58.649Z,742
2022-12-11T13:03:20.056Z,159
2022-12-11T13:07:39.716Z,143
2022-12-11T13:11:20.763Z,114
2022-12-11T13:15:01.416Z,123
2022-12-11T13:18:42.059Z,138
2022-12-11T13:22:29.289Z,115
2022-12-11T13:26:16.217Z,118
2022-12-11T13:29:56.274Z,117
2022-12-11T13:33:43.216Z,129
2022-12-11T13:37:25.189Z,116
2022-12-11T13:41:05.367Z,127
2022-12-11T13:44:50.916Z,115
2022-12-11T13:48:31.827Z,132
2022-12-11T13:52:12.116Z,113
2022-12-11T13:55:57.626Z,1728
2022-12-11T13:59:37.804Z,1736
2022-12-11T14:03:23.832Z,1765
2022-12-11T14:07:12.665Z,1754
2022-12-11T14:10:54.000Z,1793
2022-12-11T14:14:39.660Z,3214
2022-12-11T14:18:27.508Z,1937
2022-12-11T14:22:08.267Z,190
2022-12-11T14:25:52.387Z,205
2022-12-11T14:29:32.718Z,207
2022-12-11T14:33:13.981Z,225
2022-12-11T14:36:54.331Z,191
2022-12-11T14:40:34.617Z,185
2022-12-11T14:44:14.646Z,194
2022-12-11T14:47:55.553Z,184
2022-12-11T14:51:44.095Z,198
2022-12-11T14:55:24.603Z,165
2022-12-11T14:59:05.096Z,159
2022-12-11T15:03:20.111Z,176
2022-12-11T15:07:00.222Z,165
2022-12-11T15:10:41.266Z,160
2022-12-11T15:14:21.500Z,203
2022-12-11T15:18:04.386Z,934
2022-12-11T15:21:45.675Z,1054
2022-12-11T15:25:25.809Z,1049
2022-12-11T15:29:06.283Z,1014
2022-12-11T15:32:47.510Z,1030
2022-12-11T15:36:34.156Z,1030
2022-12-11T15:40:15.163Z,1004
2022-12-11T15:44:02.444Z,1012
2022-12-11T15:47:43.396Z,1020
2022-12-11T15:51:23.782Z,980
2022-12-11T15:55:04.187Z,1006
2022-12-11T15:58:44.558Z,957
2022-12-11T16:03:18.579Z,960
2022-12-11T16:07:05.297Z,958
2022-12-11T16:10:45.939Z,877
2022-12-11T16:14:26.274Z,890
2022-12-11T16:18:13.703Z,932
2022-12-11T16:21:59.094Z,940
2022-12-11T16:25:39.447Z,972
2022-12-11T16:29:26.056Z,930
2022-12-11T16:33:12.949Z,943
2022-12-11T16:36:54.356Z,967
2022-12-11T16:40:40.120Z,956
2022-12-11T16:44:20.315Z,973
2022-12-11T16:48:01.580Z,996
2022-12-11T16:51:41.815Z,951
2022-12-11T16:55:28.111Z,268
2022-12-11T16:59:08.577Z,213
2022-12-11T17:03:19.632Z,220
2022-12-11T17:08:47.315Z,207
2022-12-11T17:12:27.566Z,203
2022-12-11T17:16:14.679Z,321
2022-12-11T17:19:54.924Z,1840
2022-12-11T17:23:42.560Z,239
2022-12-11T17:27:23.060Z,234
2022-12-11T17:31:03.531Z,235
2022-12-11T17:34:49.712Z,1808
2022-12-11T17:38:30.098Z,269
2022-12-11T17:42:18.301Z,247
2022-12-11T17:45:59.208Z,267
2022-12-11T17:49:48.029Z,250
2022-12-11T17:53:38.789Z,317
2022-12-11T17:57:20.223Z,240
2022-12-11T18:03:23.229Z,1915
2022-12-11T18:07:04.315Z,368
2022-12-11T18:10:52.472Z,353
2022-12-11T18:14:32.742Z,333
2022-12-11T18:18:14.087Z,356
2022-12-11T18:21:54.218Z,355
2022-12-11T18:25:41.914Z,334
2022-12-11T18:29:22.356Z,318
2022-12-11T18:33:03.081Z,202
2022-12-11T18:36:43.336Z,248
2022-12-11T18:40:28.769Z,229
2022-12-11T18:44:41.480Z,261
2022-12-11T18:48:22.432Z,287
2022-12-11T18:52:10.148Z,252
2022-12-11T18:55:53.493Z,261
2022-12-11T18:59:37.443Z,231
2022-12-11T19:03:18.548Z,239
2022-12-11T19:07:11.332Z,227
2022-12-11T19:10:52.582Z,229
2022-12-11T19:14:32.931Z,282
2022-12-11T19:18:18.832Z,300
2022-12-11T19:22:58.733Z,224
2022-12-11T19:26:38.832Z,245
2022-12-11T19:30:19.728Z,219
2022-12-11T19:34:00.439Z,260
2022-12-11T19:37:40.859Z,254
2022-12-11T19:41:21.004Z,1910
2022-12-11T19:45:01.346Z,221
2022-12-11T19:48:42.206Z,221
2022-12-11T19:52:22.808Z,176
2022-12-11T19:56:03.937Z,195
2022-12-11T19:59:44.498Z,216
2022-12-11T20:03:19.103Z,217
2022-12-11T20:07:00.193Z,204
2022-12-11T20:11:29.790Z,197
2022-12-11T20:15:10.709Z,189
2022-12-11T20:19:18.749Z,201
2022-12-11T20:22:59.088Z,195
2022-12-11T20:26:47.348Z,202
2022-12-11T20:30:27.778Z,228
2022-12-11T20:34:14.513Z,218
2022-12-11T20:37:55.172Z,241
2022-12-11T20:41:40.232Z,222
2022-12-11T20:45:26.577Z,218
2022-12-11T20:49:07.427Z,241
2022-12-11T20:52:47.518Z,248
2022-12-11T20:56:27.904Z,217
2022-12-11T21:03:18.805Z,218
2022-12-11T21:06:59.654Z,221
2022-12-11T21:10:40.398Z,256
2022-12-11T21:14:28.393Z,269
2022-12-11T21:18:09.898Z,206
2022-12-11T21:21:55.630Z,210
2022-12-11T21:25:36.031Z,197
2022-12-11T21:29:23.905Z,201
2022-12-11T21:33:04.780Z,200
2022-12-11T21:36:46.029Z,198
2022-12-11T21:40:33.511Z,244
2022-12-11T21:46:12.222Z,243
2022-12-11T21:49:52.765Z,208
2022-12-11T21:53:44.846Z,197
2022-12-11T21:57:32.040Z,209
2022-12-11T22:03:24.452Z,228
2022-12-11T22:07:05.595Z,222
2022-12-11T22:10:46.453Z,244
2022-12-11T22:14:34.119Z,226
2022-12-11T22:18:15.239Z,215
2022-12-11T22:21:55.849Z,221
2022-12-11T22:25:35.838Z,200
2022-12-11T22:29:20.931Z,198
2022-12-11T22:33:01.440Z,195
2022-12-11T22:36:41.618Z,199
2022-12-11T22:40:21.974Z,209
2022-12-11T22:44:10.574Z,196
2022-12-11T22:47:52.080Z,199
2022-12-11T22:51:32.333Z,210
2022-12-11T22:55:12.802Z,197
2022-12-11T22:58:59.195Z,201
2022-12-11T23:03:19.105Z,211
2022-12-11T23:07:05.111Z,194
2022-12-11T23:10:46.892Z,196
2022-12-11T23:14:26.987Z,224
2022-12-11T23:18:08.147Z,225
2022-12-11T23:21:48.340Z,216
2022-12-11T23:25:28.682Z,150
2022-12-11T23:29:08.940Z,153
2022-12-11T23:32:49.852Z,306
2022-12-11T23:36:29.964Z,294
2022-12-11T23:40:10.351Z,254
2022-12-11T23:43:50.702Z,280
2022-12-11T23:47:31.466Z,221
2022-12-11T23:51:11.387Z,235
2022-12-11T23:54:51.589Z,213
2022-12-11T23:58:31.700Z,183
